DAL3928 KBOS-KPHL
Flight info
| Callsign | DAL3928 |
|---|---|
| Flight time | 0h 59m |
| Altitude | 28000 |
| Route | SSOXS7 SSOXS Q167 RIFLE Q439 BRIGS JIIMS4 |
| Aircraft | B77L/H-SDE1E2E3FGHIJ2J3J4J5M1RWXY/LB1D1 |
Departure
| Time | 2026-05-07 01:11 |
|---|---|
| Airport | Boston Logan International Airport (KBOS) |
Arrival
| Time | 2026-05-07 02:10 |
|---|---|
| Airport | Philadelphia International Airport (KPHL) |
| Time | Latitude | Longitude | Altitude | Speed | Heading |
|---|---|---|---|---|---|
| 2026-05-07 00:43 | 42.36226 | -71.02431 | 30 ft | 0 kts | 274° |
| 2026-05-07 00:55 | 42.36226 | -71.02415 | 30 ft | 2 kts | 261° |
| 2026-05-07 00:56 | 42.36229 | -71.02393 | 29 ft | 2 kts | 252° |
| 2026-05-07 00:56 | 42.36235 | -71.02373 | 28 ft | 2 kts | 234° |
| 2026-05-07 00:56 | 42.36247 | -71.02357 | 30 ft | 2 kts | 212° |
| 2026-05-07 00:56 | 42.36261 | -71.02346 | 28 ft | 2 kts | 196° |
| 2026-05-07 00:57 | 42.36277 | -71.02342 | 29 ft | 2 kts | 185° |
| 2026-05-07 00:57 | 42.36284 | -71.02341 | 27 ft | 0 kts | 180° |
| 2026-05-07 00:59 | 42.36211 | -71.02346 | 29 ft | 0 kts | 184° |
| 2026-05-07 01:00 | 42.36188 | -71.02348 | 30 ft | 11 kts | 184° |
| 2026-05-07 01:00 | 42.36076 | -71.02312 | 30 ft | 18 kts | 149° |
| 2026-05-07 01:00 | 42.35999 | -71.02180 | 30 ft | 18 kts | 121° |
| 2026-05-07 01:01 | 42.35930 | -71.02026 | 30 ft | 21 kts | 121° |
| 2026-05-07 01:01 | 42.35860 | -71.01848 | 30 ft | 21 kts | 109° |
| 2026-05-07 01:01 | 42.35826 | -71.01653 | 30 ft | 21 kts | 95° |
| 2026-05-07 01:01 | 42.35890 | -71.01552 | 30 ft | 18 kts | 22° |
| 2026-05-07 01:02 | 42.36062 | -71.01467 | 30 ft | 24 kts | 20° |
| 2026-05-07 01:02 | 42.36116 | -71.01440 | 30 ft | 1 kts | 20° |
| 2026-05-07 01:02 | 42.36210 | -71.01394 | 30 ft | 27 kts | 20° |
| 2026-05-07 01:02 | 42.36388 | -71.01309 | 30 ft | 27 kts | 20° |
| 2026-05-07 01:03 | 42.36543 | -71.01243 | 30 ft | 17 kts | 2° |
| 2026-05-07 01:03 | 42.36633 | -71.01269 | 30 ft | 21 kts | 7° |
| 2026-05-07 01:03 | 42.36772 | -71.01264 | 30 ft | 19 kts | 335° |
| 2026-05-07 01:03 | 42.36852 | -71.01254 | 30 ft | 13 kts | 33° |
| 2026-05-07 01:04 | 42.36975 | -71.01125 | 30 ft | 26 kts | 32° |
| 2026-05-07 01:04 | 42.37139 | -71.01012 | 29 ft | 26 kts | 26° |
| 2026-05-07 01:04 | 42.37234 | -71.00951 | 30 ft | 0 kts | 25° |
| 2026-05-07 01:07 | 42.37239 | -71.00948 | 29 ft | 4 kts | 25° |
| 2026-05-07 01:07 | 42.37333 | -71.00893 | 30 ft | 28 kts | 22° |
| 2026-05-07 01:07 | 42.37520 | -71.00800 | 30 ft | 29 kts | 18° |
| 2026-05-07 01:07 | 42.37711 | -71.00709 | 30 ft | 28 kts | 21° |
| 2026-05-07 01:08 | 42.37823 | -71.00636 | 30 ft | 11 kts | 53° |
| 2026-05-07 01:08 | 42.37831 | -71.00598 | 30 ft | 0 kts | 93° |
| 2026-05-07 01:09 | 42.37831 | -71.00593 | 30 ft | 3 kts | 94° |
| 2026-05-07 01:10 | 42.37810 | -71.00517 | 30 ft | 13 kts | 131° |
| 2026-05-07 01:10 | 42.37726 | -71.00506 | 30 ft | 13 kts | 199° |
| 2026-05-07 01:10 | 42.37653 | -71.00542 | 30 ft | 31 kts | 200° |
| 2026-05-07 01:10 | 42.36683 | -71.01015 | 168 ft | 177 kts | 201° |
| 2026-05-07 01:11 | 42.35918 | -71.01386 | 1085 ft | 166 kts | 202° |
| 2026-05-07 01:11 | 42.34366 | -71.01766 | 2756 ft | 196 kts | 181° |
| 2026-05-07 01:11 | 42.33436 | -71.01328 | 3052 ft | 231 kts | 153° |
| 2026-05-07 01:11 | 42.32373 | -70.99614 | 3996 ft | 245 kts | 128° |
| 2026-05-07 01:12 | 42.31553 | -70.97611 | 5112 ft | 247 kts | 115° |
| 2026-05-07 01:12 | 42.31309 | -70.95262 | 5955 ft | 263 kts | 92° |
| 2026-05-07 01:12 | 42.31499 | -70.92667 | 6376 ft | 295 kts | 80° |
| 2026-05-07 01:12 | 42.31931 | -70.89880 | 7246 ft | 306 kts | 78° |
| 2026-05-07 01:13 | 42.32360 | -70.87078 | 8351 ft | 309 kts | 79° |
| 2026-05-07 01:13 | 42.32784 | -70.84157 | 9324 ft | 322 kts | 80° |
| 2026-05-07 01:13 | 42.33140 | -70.81132 | 10222 ft | 328 kts | 91° |
| 2026-05-07 01:13 | 42.32746 | -70.78077 | 10898 ft | 336 kts | 116° |
| 2026-05-07 01:14 | 42.31722 | -70.75094 | 11200 ft | 365 kts | 121° |
| 2026-05-07 01:14 | 42.30556 | -70.71918 | 11457 ft | 393 kts | 124° |
| 2026-05-07 01:14 | 42.28864 | -70.68987 | 12058 ft | 395 kts | 145° |
| 2026-05-07 01:14 | 42.26614 | -70.67008 | 13132 ft | 385 kts | 163° |
| 2026-05-07 01:15 | 42.24120 | -70.65840 | 14129 ft | 381 kts | 170° |
| 2026-05-07 01:15 | 42.21563 | -70.64758 | 15047 ft | 387 kts | 170° |
| 2026-05-07 01:15 | 42.19006 | -70.63633 | 16110 ft | 390 kts | 169° |
| 2026-05-07 01:15 | 42.16406 | -70.62464 | 17148 ft | 389 kts | 171° |
| 2026-05-07 01:16 | 42.13770 | -70.61895 | 17919 ft | 381 kts | 187° |
| 2026-05-07 01:16 | 42.11194 | -70.62396 | 18689 ft | 374 kts | 202° |
| 2026-05-07 01:16 | 42.08691 | -70.63484 | 19361 ft | 380 kts | 205° |
| 2026-05-07 01:16 | 42.06158 | -70.64648 | 20076 ft | 387 kts | 205° |
| 2026-05-07 01:17 | 42.03587 | -70.65828 | 20844 ft | 393 kts | 205° |
| 2026-05-07 01:17 | 42.00968 | -70.67014 | 21591 ft | 399 kts | 206° |
| 2026-05-07 01:17 | 41.98336 | -70.68189 | 22319 ft | 406 kts | 206° |
| 2026-05-07 01:17 | 41.95613 | -70.69392 | 23032 ft | 412 kts | 206° |
| 2026-05-07 01:18 | 41.92863 | -70.70599 | 23692 ft | 418 kts | 206° |
| 2026-05-07 01:18 | 41.90112 | -70.71800 | 24366 ft | 421 kts | 207° |
| 2026-05-07 01:18 | 41.87309 | -70.73024 | 25104 ft | 423 kts | 207° |
| 2026-05-07 01:18 | 41.84526 | -70.74241 | 25818 ft | 424 kts | 207° |
| 2026-05-07 01:19 | 41.81804 | -70.75747 | 26444 ft | 417 kts | 216° |
| 2026-05-07 01:19 | 41.79278 | -70.77654 | 27041 ft | 418 kts | 219° |
| 2026-05-07 01:19 | 41.76792 | -70.79627 | 27660 ft | 420 kts | 219° |
| 2026-05-07 01:19 | 41.74259 | -70.81626 | 27860 ft | 423 kts | 219° |
| 2026-05-07 01:20 | 41.71692 | -70.83607 | 27859 ft | 425 kts | 218° |
| 2026-05-07 01:20 | 41.69143 | -70.85537 | 27854 ft | 425 kts | 218° |
| 2026-05-07 01:20 | 41.66561 | -70.87471 | 27857 ft | 424 kts | 218° |
| 2026-05-07 01:20 | 41.64012 | -70.89374 | 27854 ft | 423 kts | 218° |
| 2026-05-07 01:21 | 41.61438 | -70.91295 | 27856 ft | 423 kts | 218° |
| 2026-05-07 01:21 | 41.58868 | -70.93238 | 27855 ft | 421 kts | 220° |
| 2026-05-07 01:21 | 41.56522 | -70.95508 | 27863 ft | 413 kts | 227° |
| 2026-05-07 01:21 | 41.54445 | -70.98061 | 27866 ft | 409 kts | 232° |
| 2026-05-07 01:22 | 41.52492 | -71.00824 | 27867 ft | 407 kts | 235° |
| 2026-05-07 01:22 | 41.50806 | -71.03820 | 27868 ft | 402 kts | 241° |
| 2026-05-07 01:22 | 41.49259 | -71.06947 | 27867 ft | 403 kts | 242° |
| 2026-05-07 01:22 | 41.47720 | -71.10079 | 27866 ft | 404 kts | 242° |
| 2026-05-07 01:23 | 41.46173 | -71.13212 | 27868 ft | 404 kts | 242° |
| 2026-05-07 01:23 | 41.44620 | -71.16335 | 27860 ft | 404 kts | 241° |
| 2026-05-07 01:23 | 41.43078 | -71.19421 | 27860 ft | 404 kts | 241° |
| 2026-05-07 01:23 | 41.41510 | -71.22547 | 27860 ft | 404 kts | 241° |
| 2026-05-07 01:24 | 41.39947 | -71.25656 | 27857 ft | 404 kts | 241° |
| 2026-05-07 01:24 | 41.38384 | -71.28764 | 27855 ft | 403 kts | 241° |
| 2026-05-07 01:24 | 41.36821 | -71.31868 | 27857 ft | 403 kts | 241° |
| 2026-05-07 01:24 | 41.35256 | -71.34969 | 27856 ft | 403 kts | 241° |
| 2026-05-07 01:25 | 41.33690 | -71.38068 | 27875 ft | 403 kts | 241° |
| 2026-05-07 01:25 | 41.32126 | -71.41157 | 27872 ft | 403 kts | 241° |
| 2026-05-07 01:25 | 41.30557 | -71.44254 | 27876 ft | 403 kts | 241° |
| 2026-05-07 01:25 | 41.29012 | -71.47301 | 27873 ft | 403 kts | 241° |
| 2026-05-07 01:26 | 41.27442 | -71.50395 | 27879 ft | 403 kts | 241° |
| 2026-05-07 01:26 | 41.25875 | -71.53482 | 27873 ft | 403 kts | 241° |
| 2026-05-07 01:26 | 41.24305 | -71.56572 | 27879 ft | 402 kts | 241° |
| 2026-05-07 01:26 | 41.22730 | -71.59667 | 27878 ft | 402 kts | 241° |
| 2026-05-07 01:27 | 41.21184 | -71.62703 | 27877 ft | 402 kts | 241° |
| 2026-05-07 01:27 | 41.19613 | -71.65785 | 27879 ft | 402 kts | 241° |
| 2026-05-07 01:27 | 41.18038 | -71.68874 | 27877 ft | 402 kts | 241° |
| 2026-05-07 01:27 | 41.16463 | -71.71958 | 27874 ft | 402 kts | 241° |
| 2026-05-07 01:28 | 41.14907 | -71.75000 | 27875 ft | 402 kts | 241° |
| 2026-05-07 01:28 | 41.13334 | -71.78077 | 27877 ft | 403 kts | 241° |
| 2026-05-07 01:28 | 41.11760 | -71.81160 | 27882 ft | 403 kts | 241° |
| 2026-05-07 01:28 | 41.10189 | -71.84236 | 27894 ft | 403 kts | 241° |
| 2026-05-07 01:29 | 41.08614 | -71.87319 | 27893 ft | 403 kts | 241° |
| 2026-05-07 01:29 | 41.07039 | -71.90400 | 27878 ft | 403 kts | 241° |
| 2026-05-07 01:29 | 41.05939 | -71.92546 | 27894 ft | 403 kts | 241° |
| 2026-05-07 01:29 | 41.04370 | -71.95639 | 27896 ft | 401 kts | 243° |
| 2026-05-07 01:30 | 41.02970 | -71.98780 | 27893 ft | 399 kts | 246° |
| 2026-05-07 01:30 | 41.01759 | -72.02081 | 27892 ft | 397 kts | 249° |
| 2026-05-07 01:30 | 41.00605 | -72.05420 | 27878 ft | 397 kts | 249° |
| 2026-05-07 01:30 | 40.99457 | -72.08699 | 27876 ft | 397 kts | 249° |
| 2026-05-07 01:31 | 40.98287 | -72.12021 | 27860 ft | 398 kts | 249° |
| 2026-05-07 01:31 | 40.97115 | -72.15342 | 27874 ft | 398 kts | 249° |
| 2026-05-07 01:31 | 40.95938 | -72.18673 | 27864 ft | 398 kts | 249° |
| 2026-05-07 01:31 | 40.94775 | -72.21961 | 27878 ft | 398 kts | 249° |
| 2026-05-07 01:32 | 40.93585 | -72.25267 | 27861 ft | 399 kts | 247° |
| 2026-05-07 01:32 | 40.92158 | -72.28443 | 27878 ft | 402 kts | 242° |
| 2026-05-07 01:32 | 40.90548 | -72.31483 | 27872 ft | 404 kts | 240° |
| 2026-05-07 01:32 | 40.88841 | -72.34452 | 27873 ft | 405 kts | 238° |
| 2026-05-07 01:33 | 40.86959 | -72.37260 | 27868 ft | 410 kts | 233° |
| 2026-05-07 01:33 | 40.84930 | -72.39901 | 27491 ft | 406 kts | 232° |
| 2026-05-07 01:33 | 40.82941 | -72.42476 | 26713 ft | 402 kts | 232° |
| 2026-05-07 01:33 | 40.80955 | -72.45066 | 25917 ft | 398 kts | 232° |
| 2026-05-07 01:34 | 40.78911 | -72.47532 | 25138 ft | 398 kts | 228° |
| 2026-05-07 01:34 | 40.76791 | -72.49808 | 24392 ft | 395 kts | 227° |
| 2026-05-07 01:34 | 40.74664 | -72.52084 | 23672 ft | 392 kts | 227° |
| 2026-05-07 01:34 | 40.72560 | -72.54349 | 22861 ft | 389 kts | 227° |
| 2026-05-07 01:35 | 40.70470 | -72.56606 | 21993 ft | 386 kts | 227° |
| 2026-05-07 01:35 | 40.68438 | -72.58906 | 21168 ft | 382 kts | 230° |
| 2026-05-07 01:35 | 40.66557 | -72.61361 | 20442 ft | 378 kts | 231° |
| 2026-05-07 01:35 | 40.64711 | -72.63800 | 20191 ft | 382 kts | 231° |
| 2026-05-07 01:36 | 40.62834 | -72.66268 | 20010 ft | 381 kts | 231° |
| 2026-05-07 01:36 | 40.60948 | -72.68739 | 19887 ft | 380 kts | 230° |
| 2026-05-07 01:36 | 40.59077 | -72.71184 | 19887 ft | 378 kts | 230° |
| 2026-05-07 01:36 | 40.57225 | -72.73605 | 19880 ft | 379 kts | 231° |
| 2026-05-07 01:37 | 40.55347 | -72.76057 | 19872 ft | 380 kts | 231° |
| 2026-05-07 01:37 | 40.53469 | -72.78505 | 19879 ft | 380 kts | 230° |
| 2026-05-07 01:37 | 40.51569 | -72.80961 | 19879 ft | 381 kts | 230° |
| 2026-05-07 01:37 | 40.49624 | -72.83344 | 19878 ft | 383 kts | 229° |
| 2026-05-07 01:38 | 40.47677 | -72.85669 | 19875 ft | 383 kts | 228° |
| 2026-05-07 01:38 | 40.45702 | -72.88020 | 19876 ft | 383 kts | 228° |
| 2026-05-07 01:38 | 40.43729 | -72.90375 | 19875 ft | 383 kts | 229° |
| 2026-05-07 01:38 | 40.41759 | -72.92735 | 19874 ft | 383 kts | 229° |
| 2026-05-07 01:39 | 40.39810 | -72.95077 | 19878 ft | 383 kts | 229° |
| 2026-05-07 01:39 | 40.37846 | -72.97437 | 19881 ft | 383 kts | 229° |
| 2026-05-07 01:39 | 40.35884 | -72.99796 | 19873 ft | 382 kts | 229° |
| 2026-05-07 01:39 | 40.33922 | -73.02151 | 19872 ft | 382 kts | 229° |
| 2026-05-07 01:40 | 40.31958 | -73.04508 | 19885 ft | 382 kts | 229° |
| 2026-05-07 01:40 | 40.30002 | -73.06870 | 19877 ft | 382 kts | 229° |
| 2026-05-07 01:40 | 40.28049 | -73.09235 | 19883 ft | 382 kts | 229° |
| 2026-05-07 01:40 | 40.26093 | -73.11600 | 19869 ft | 382 kts | 229° |
| 2026-05-07 01:41 | 40.24133 | -73.13963 | 19862 ft | 383 kts | 229° |
| 2026-05-07 01:41 | 40.22167 | -73.16321 | 19882 ft | 383 kts | 229° |
| 2026-05-07 01:41 | 40.20200 | -73.18674 | 19879 ft | 383 kts | 229° |
| 2026-05-07 01:41 | 40.18253 | -73.21002 | 19881 ft | 383 kts | 229° |
| 2026-05-07 01:42 | 40.16286 | -73.23356 | 19881 ft | 383 kts | 229° |
| 2026-05-07 01:42 | 40.14314 | -73.25715 | 19880 ft | 383 kts | 229° |
| 2026-05-07 01:42 | 40.12343 | -73.28068 | 19879 ft | 384 kts | 229° |
| 2026-05-07 01:42 | 40.10367 | -73.30420 | 19885 ft | 384 kts | 228° |
| 2026-05-07 01:43 | 40.08391 | -73.32758 | 19886 ft | 384 kts | 228° |
| 2026-05-07 01:43 | 40.06407 | -73.35102 | 19883 ft | 384 kts | 228° |
| 2026-05-07 01:43 | 40.04422 | -73.37445 | 19886 ft | 385 kts | 228° |
| 2026-05-07 01:43 | 40.02435 | -73.39789 | 19886 ft | 385 kts | 228° |
| 2026-05-07 01:44 | 40.00474 | -73.42103 | 19887 ft | 385 kts | 228° |
| 2026-05-07 01:44 | 39.98484 | -73.44450 | 19884 ft | 385 kts | 228° |
| 2026-05-07 01:44 | 39.96495 | -73.46794 | 19888 ft | 386 kts | 228° |
| 2026-05-07 01:44 | 39.94496 | -73.49149 | 19890 ft | 386 kts | 228° |
| 2026-05-07 01:45 | 39.92499 | -73.51497 | 19889 ft | 386 kts | 228° |
| 2026-05-07 01:45 | 39.90529 | -73.53877 | 19889 ft | 384 kts | 231° |
| 2026-05-07 01:45 | 39.88756 | -73.56410 | 19890 ft | 380 kts | 236° |
| 2026-05-07 01:45 | 39.87095 | -73.59097 | 19894 ft | 380 kts | 236° |
| 2026-05-07 01:46 | 39.85424 | -73.61776 | 19894 ft | 381 kts | 236° |
| 2026-05-07 01:46 | 39.83739 | -73.64454 | 19893 ft | 381 kts | 236° |
| 2026-05-07 01:46 | 39.82078 | -73.67085 | 19894 ft | 381 kts | 236° |
| 2026-05-07 01:46 | 39.80383 | -73.69767 | 19896 ft | 381 kts | 236° |
| 2026-05-07 01:47 | 39.78702 | -73.72431 | 19895 ft | 381 kts | 236° |
| 2026-05-07 01:47 | 39.77014 | -73.75105 | 19895 ft | 381 kts | 236° |
| 2026-05-07 01:47 | 39.75346 | -73.77749 | 19898 ft | 381 kts | 236° |
| 2026-05-07 01:47 | 39.73659 | -73.80419 | 19896 ft | 381 kts | 236° |
| 2026-05-07 01:48 | 39.71987 | -73.83062 | 19896 ft | 381 kts | 236° |
| 2026-05-07 01:48 | 39.70298 | -73.85731 | 19895 ft | 381 kts | 236° |
| 2026-05-07 01:48 | 39.68607 | -73.88401 | 19895 ft | 381 kts | 236° |
| 2026-05-07 01:48 | 39.66941 | -73.91029 | 19899 ft | 381 kts | 236° |
| 2026-05-07 01:49 | 39.65253 | -73.93691 | 19900 ft | 381 kts | 236° |
| 2026-05-07 01:49 | 39.63564 | -73.96351 | 19898 ft | 381 kts | 236° |
| 2026-05-07 01:49 | 39.61869 | -73.99016 | 19873 ft | 380 kts | 236° |
| 2026-05-07 01:49 | 39.60210 | -74.01623 | 19399 ft | 377 kts | 235° |
| 2026-05-07 01:50 | 39.58543 | -74.04246 | 18795 ft | 376 kts | 235° |
| 2026-05-07 01:50 | 39.56872 | -74.06875 | 18419 ft | 375 kts | 235° |
| 2026-05-07 01:50 | 39.55219 | -74.09471 | 18189 ft | 371 kts | 235° |
| 2026-05-07 01:50 | 39.53704 | -74.12073 | 17781 ft | 359 kts | 244° |
| 2026-05-07 01:51 | 39.52780 | -74.15078 | 17287 ft | 359 kts | 256° |
| 2026-05-07 01:51 | 39.52402 | -74.18244 | 16995 ft | 355 kts | 268° |
| 2026-05-07 01:51 | 39.52419 | -74.21449 | 16475 ft | 354 kts | 270° |
| 2026-05-07 01:51 | 39.52501 | -74.24613 | 15839 ft | 353 kts | 270° |
| 2026-05-07 01:52 | 39.52594 | -74.27779 | 15217 ft | 349 kts | 270° |
| 2026-05-07 01:52 | 39.52679 | -74.30918 | 14596 ft | 346 kts | 270° |
| 2026-05-07 01:52 | 39.52753 | -74.33986 | 13993 ft | 343 kts | 269° |
| 2026-05-07 01:52 | 39.52819 | -74.37074 | 13333 ft | 341 kts | 269° |
| 2026-05-07 01:53 | 39.52878 | -74.40149 | 12705 ft | 338 kts | 269° |
| 2026-05-07 01:53 | 39.52933 | -74.43181 | 12095 ft | 335 kts | 269° |
| 2026-05-07 01:53 | 39.52985 | -74.46177 | 11512 ft | 331 kts | 269° |
| 2026-05-07 01:53 | 39.53035 | -74.49145 | 10952 ft | 327 kts | 269° |
| 2026-05-07 01:54 | 39.53083 | -74.51999 | 10806 ft | 312 kts | 269° |
| 2026-05-07 01:54 | 39.53099 | -74.52940 | 10760 ft | 307 kts | 269° |
| 2026-05-07 01:54 | 39.53172 | -74.57374 | 10520 ft | 284 kts | 269° |
| 2026-05-07 01:54 | 39.53211 | -74.59873 | 10399 ft | 271 kts | 269° |
| 2026-05-07 01:55 | 39.53248 | -74.62268 | 10283 ft | 259 kts | 269° |
| 2026-05-07 01:55 | 39.53283 | -74.64545 | 10170 ft | 247 kts | 269° |
| 2026-05-07 01:55 | 39.53316 | -74.66684 | 10071 ft | 234 kts | 269° |
| 2026-05-07 01:55 | 39.53347 | -74.68767 | 9878 ft | 228 kts | 268° |
| 2026-05-07 01:56 | 39.53376 | -74.70842 | 9606 ft | 231 kts | 269° |
| 2026-05-07 01:56 | 39.53405 | -74.72939 | 9301 ft | 240 kts | 269° |
| 2026-05-07 01:56 | 39.53436 | -74.75121 | 9098 ft | 240 kts | 269° |
| 2026-05-07 01:56 | 39.53470 | -74.77282 | 9055 ft | 239 kts | 269° |
| 2026-05-07 01:57 | 39.53504 | -74.79422 | 9017 ft | 241 kts | 269° |
| 2026-05-07 01:57 | 39.53539 | -74.81614 | 9024 ft | 244 kts | 269° |
| 2026-05-07 01:57 | 39.53574 | -74.83814 | 9013 ft | 244 kts | 269° |
| 2026-05-07 01:57 | 39.53608 | -74.86012 | 9014 ft | 243 kts | 269° |
| 2026-05-07 01:58 | 39.53631 | -74.87465 | 9001 ft | 243 kts | 269° |
| 2026-05-07 01:58 | 39.53664 | -74.89659 | 9000 ft | 242 kts | 269° |
| 2026-05-07 01:58 | 39.53696 | -74.91836 | 9011 ft | 241 kts | 269° |
| 2026-05-07 01:58 | 39.53728 | -74.93984 | 9001 ft | 240 kts | 269° |
| 2026-05-07 01:59 | 39.54090 | -74.96088 | 8720 ft | 245 kts | 292° |
| 2026-05-07 01:59 | 39.55148 | -74.97861 | 8355 ft | 254 kts | 312° |
| 2026-05-07 01:59 | 39.56403 | -74.98912 | 7976 ft | 264 kts | 329° |
| 2026-05-07 01:59 | 39.58186 | -74.99539 | 7559 ft | 275 kts | 352° |
| 2026-05-07 02:00 | 39.60091 | -74.99229 | 7095 ft | 280 kts | 5° |
| 2026-05-07 02:00 | 39.62011 | -74.98718 | 6673 ft | 280 kts | 6° |
| 2026-05-07 02:00 | 39.63911 | -74.98205 | 6353 ft | 276 kts | 6° |
| 2026-05-07 02:00 | 39.65790 | -74.97708 | 6027 ft | 274 kts | 6° |
| 2026-05-07 02:01 | 39.67639 | -74.97229 | 5998 ft | 274 kts | 6° |
| 2026-05-07 02:01 | 39.69524 | -74.96749 | 6006 ft | 276 kts | 5° |
| 2026-05-07 02:01 | 39.71423 | -74.96271 | 5991 ft | 277 kts | 5° |
| 2026-05-07 02:01 | 39.73311 | -74.95796 | 5996 ft | 275 kts | 5° |
| 2026-05-07 02:02 | 39.75187 | -74.95328 | 5986 ft | 274 kts | 5° |
| 2026-05-07 02:02 | 39.77042 | -74.94866 | 5989 ft | 273 kts | 5° |
| 2026-05-07 02:02 | 39.78913 | -74.94400 | 5984 ft | 273 kts | 5° |
| 2026-05-07 02:02 | 39.80781 | -74.93932 | 5801 ft | 272 kts | 5° |
| 2026-05-07 02:03 | 39.82629 | -74.93355 | 5424 ft | 272 kts | 9° |
| 2026-05-07 02:03 | 39.84439 | -74.92718 | 5053 ft | 272 kts | 10° |
| 2026-05-07 02:03 | 39.86228 | -74.92080 | 4451 ft | 262 kts | 10° |
| 2026-05-07 02:03 | 39.87967 | -74.91594 | 3765 ft | 250 kts | 356° |
| 2026-05-07 02:04 | 39.89599 | -74.91881 | 3372 ft | 224 kts | 330° |
| 2026-05-07 02:04 | 39.90776 | -74.93157 | 3194 ft | 223 kts | 299° |
| 2026-05-07 02:04 | 39.91450 | -74.94950 | 3036 ft | 217 kts | 291° |
| 2026-05-07 02:04 | 39.92009 | -74.96714 | 2990 ft | 204 kts | 282° |
| 2026-05-07 02:05 | 39.91999 | -74.98501 | 3001 ft | 193 kts | 263° |
| 2026-05-07 02:05 | 39.91814 | -75.00207 | 2992 ft | 192 kts | 261° |
| 2026-05-07 02:05 | 39.91558 | -75.01889 | 2981 ft | 183 kts | 258° |
| 2026-05-07 02:05 | 39.91267 | -75.03435 | 2943 ft | 173 kts | 257° |
| 2026-05-07 02:06 | 39.90968 | -75.04957 | 2725 ft | 173 kts | 257° |
| 2026-05-07 02:06 | 39.90667 | -75.06471 | 2471 ft | 170 kts | 257° |
| 2026-05-07 02:06 | 39.90375 | -75.07941 | 2246 ft | 169 kts | 257° |
| 2026-05-07 02:06 | 39.90083 | -75.09407 | 2009 ft | 162 kts | 257° |
| 2026-05-07 02:07 | 39.89815 | -75.10754 | 1826 ft | 144 kts | 258° |
| 2026-05-07 02:07 | 39.89344 | -75.13127 | 1467 ft | 136 kts | 258° |
| 2026-05-07 02:07 | 39.89106 | -75.14330 | 1282 ft | 137 kts | 257° |
| 2026-05-07 02:08 | 39.88880 | -75.15463 | 1109 ft | 136 kts | 258° |
| 2026-05-07 02:08 | 39.88642 | -75.16666 | 936 ft | 134 kts | 256° |
| 2026-05-07 02:08 | 39.88407 | -75.17842 | 752 ft | 135 kts | 256° |
| 2026-05-07 02:08 | 39.88172 | -75.19022 | 573 ft | 135 kts | 254° |
| 2026-05-07 02:09 | 39.87941 | -75.20194 | 394 ft | 132 kts | 254° |
| 2026-05-07 02:09 | 39.87708 | -75.21364 | 221 ft | 134 kts | 255° |
| 2026-05-07 02:09 | 39.87476 | -75.22523 | 50 ft | 132 kts | 253° |
| 2026-05-07 02:09 | 39.87302 | -75.23390 | 28 ft | 51 kts | 256° |
| 2026-05-07 02:10 | 39.87210 | -75.23842 | 27 ft | 50 kts | 255° |
| 2026-05-07 02:10 | 39.87163 | -75.24246 | 29 ft | 30 kts | 275° |
| 2026-05-07 02:10 | 39.87204 | -75.24293 | 28 ft | 0 kts | 352° |
| 2026-05-07 02:11 | 39.87212 | -75.24290 | 27 ft | 4 kts | 15° |
| 2026-05-07 02:11 | 39.87238 | -75.24249 | 27 ft | 12 kts | 62° |
| 2026-05-07 02:11 | 39.87334 | -75.24217 | 27 ft | 17 kts | 345° |
| 2026-05-07 02:11 | 39.87423 | -75.24263 | 27 ft | 9 kts | 304° |
| 2026-05-07 02:12 | 39.87429 | -75.24276 | 27 ft | 4 kts | 298° |
| 2026-05-07 02:12 | 39.87433 | -75.24293 | 26 ft | 0 kts | 291° |
| 2026-05-07 02:12 | 39.87434 | -75.24296 | 27 ft | 0 kts | 287° |